createdAt,value
2016-10-15T00:00:54.395Z,0
2016-10-15T00:01:54.414Z,0
2016-10-15T00:02:54.420Z,0
2016-10-15T00:03:54.462Z,0
2016-10-15T00:04:54.460Z,0
2016-10-15T00:05:54.507Z,0
2016-10-15T00:06:54.511Z,0
2016-10-15T00:07:54.532Z,0
2016-10-15T00:08:54.559Z,0
2016-10-15T00:09:54.552Z,0
2016-10-15T00:10:54.584Z,0
2016-10-15T00:11:54.596Z,0
2016-10-15T00:12:54.634Z,0
2016-10-15T00:13:54.638Z,0
2016-10-15T00:14:54.646Z,0
2016-10-15T00:15:54.671Z,0
2016-10-15T00:16:54.679Z,0
2016-10-15T00:17:54.704Z,0
2016-10-15T00:18:54.718Z,0
2016-10-15T00:19:54.739Z,0
2016-10-15T00:20:54.760Z,0
2016-10-15T00:21:54.763Z,0
2016-10-15T00:22:54.790Z,0
2016-10-15T00:23:55.380Z,0
2016-10-15T00:24:54.819Z,0
2016-10-15T00:25:54.847Z,0
2016-10-15T00:26:54.857Z,0
2016-10-15T00:27:54.872Z,0
2016-10-15T00:28:54.884Z,0
2016-10-15T00:29:54.896Z,0
2016-10-15T00:30:54.923Z,0
2016-10-15T00:31:54.931Z,0
2016-10-15T00:32:54.951Z,0
2016-10-15T00:33:54.976Z,0
2016-10-15T00:34:55.005Z,0
2016-10-15T00:35:54.999Z,0
2016-10-15T00:36:55.018Z,0
2016-10-15T00:37:55.040Z,0
2016-10-15T00:38:55.053Z,0
2016-10-15T00:39:55.075Z,0
2016-10-15T00:40:55.109Z,0
2016-10-15T00:41:55.108Z,0
2016-10-15T00:42:55.132Z,0
2016-10-15T00:43:55.136Z,0
2016-10-15T00:44:55.149Z,0
2016-10-15T00:45:55.167Z,0
2016-10-15T00:46:55.205Z,0
2016-10-15T00:47:55.221Z,0
2016-10-15T00:48:55.218Z,0
2016-10-15T00:49:55.240Z,0
2016-10-15T00:50:55.275Z,0
2016-10-15T00:51:55.290Z,0
2016-10-15T00:52:55.291Z,0
2016-10-15T00:53:55.307Z,0
2016-10-15T00:54:55.330Z,0
2016-10-15T00:55:55.337Z,0
2016-10-15T00:56:55.356Z,0
2016-10-15T00:57:55.370Z,0
2016-10-15T00:58:55.724Z,0
2016-10-15T00:59:55.413Z,0
2016-10-15T01:00:55.422Z,0
2016-10-15T01:01:55.450Z,0
2016-10-15T01:02:55.461Z,0
2016-10-15T01:03:55.587Z,0
2016-10-15T01:04:55.600Z,0
2016-10-15T01:05:55.738Z,0
2016-10-15T01:06:55.606Z,0
2016-10-15T01:07:55.633Z,0
2016-10-15T01:08:55.645Z,0
2016-10-15T01:09:55.805Z,0
2016-10-15T01:10:55.788Z,0
2016-10-15T01:11:55.816Z,0
2016-10-15T01:12:55.839Z,0
2016-10-15T01:13:55.727Z,0
2016-10-15T01:14:55.744Z,0
2016-10-15T01:15:55.961Z,0
2016-10-15T01:16:55.886Z,0
2016-10-15T01:17:55.891Z,0
2016-10-15T01:18:55.909Z,0
2016-10-15T01:19:55.922Z,0
2016-10-15T01:20:55.923Z,0
2016-10-15T01:21:55.920Z,0
2016-10-15T01:22:55.939Z,0
2016-10-15T01:23:55.943Z,0
2016-10-15T01:24:55.950Z,0
2016-10-15T01:25:56.057Z,0
2016-10-15T01:26:55.931Z,0
2016-10-15T01:27:55.937Z,0
2016-10-15T01:28:55.949Z,0
2016-10-15T01:29:55.959Z,0
2016-10-15T01:30:56.064Z,0
2016-10-15T01:31:55.967Z,0
2016-10-15T01:32:55.976Z,0
2016-10-15T01:33:56.055Z,0
2016-10-15T01:34:56.003Z,0
2016-10-15T01:35:56.069Z,0
2016-10-15T01:36:56.053Z,0
2016-10-15T01:37:56.050Z,0
2016-10-15T01:38:56.086Z,0
2016-10-15T01:39:56.074Z,0
2016-10-15T01:40:56.112Z,0
2016-10-15T01:41:56.441Z,0
2016-10-15T01:42:56.147Z,0
2016-10-15T01:43:56.152Z,0
2016-10-15T01:44:56.160Z,0
2016-10-15T01:45:56.185Z,0
2016-10-15T01:46:56.199Z,0
2016-10-15T01:47:56.230Z,0
2016-10-15T01:48:56.231Z,0
2016-10-15T01:49:56.254Z,0
2016-10-15T01:50:56.259Z,0
2016-10-15T01:51:56.292Z,0
2016-10-15T01:52:56.303Z,0
2016-10-15T01:53:56.313Z,0
2016-10-15T01:54:56.329Z,0
2016-10-15T01:55:56.352Z,0
2016-10-15T01:56:56.379Z,0
2016-10-15T01:57:56.378Z,0
2016-10-15T01:58:56.400Z,0
2016-10-15T01:59:56.743Z,0
2016-10-15T02:00:56.439Z,0
2016-10-15T02:01:56.458Z,0
2016-10-15T02:02:56.467Z,0
2016-10-15T02:03:56.501Z,0
2016-10-15T02:04:56.511Z,0
2016-10-15T02:05:56.529Z,0
2016-10-15T02:06:56.601Z,0
2016-10-15T02:07:56.619Z,0
2016-10-15T02:08:56.572Z,0
2016-10-15T02:09:56.595Z,0
2016-10-15T02:10:56.608Z,0
2016-10-15T02:11:56.616Z,0
2016-10-15T02:12:56.651Z,0
2016-10-15T02:13:56.692Z,0
2016-10-15T02:14:56.677Z,0
2016-10-15T02:15:56.689Z,0
2016-10-15T02:16:56.709Z,0
2016-10-15T02:17:56.730Z,0
2016-10-15T02:18:56.735Z,0
2016-10-15T02:19:56.752Z,0
2016-10-15T02:20:56.780Z,0
2016-10-15T02:21:56.919Z,0
2016-10-15T02:22:56.811Z,0
2016-10-15T02:23:56.942Z,0
2016-10-15T02:24:56.949Z,0
2016-10-15T02:25:56.949Z,0
2016-10-15T02:26:56.958Z,0
2016-10-15T02:27:57.089Z,0
2016-10-15T02:28:56.975Z,0
2016-10-15T02:29:56.988Z,0
2016-10-15T02:30:56.993Z,0
2016-10-15T02:31:56.992Z,0
2016-10-15T02:32:57.123Z,0
2016-10-15T02:33:57.009Z,0
2016-10-15T02:34:57.019Z,0
2016-10-15T02:35:57.032Z,0
2016-10-15T02:36:57.157Z,0
2016-10-15T02:37:57.165Z,0
2016-10-15T02:38:57.104Z,0
2016-10-15T02:39:57.280Z,0
2016-10-15T02:40:57.222Z,0
2016-10-15T02:41:57.121Z,0
2016-10-15T02:42:57.240Z,0
2016-10-15T02:43:57.248Z,0
2016-10-15T02:44:57.258Z,0
2016-10-15T02:45:57.284Z,0
2016-10-15T02:46:57.329Z,0
2016-10-15T02:47:57.303Z,0
2016-10-15T02:48:57.315Z,0
2016-10-15T02:49:57.596Z,0
2016-10-15T02:50:57.270Z,0
2016-10-15T02:51:57.302Z,0
2016-10-15T02:52:57.319Z,0
2016-10-15T02:53:57.369Z,0
2016-10-15T02:54:57.405Z,0
2016-10-15T02:55:57.467Z,0
2016-10-15T02:56:57.592Z,0
2016-10-15T02:57:57.572Z,0
2016-10-15T02:58:57.416Z,0
2016-10-15T02:59:57.579Z,0
2016-10-15T03:00:57.756Z,0
2016-10-15T03:01:57.729Z,0
2016-10-15T03:02:57.480Z,0
2016-10-15T03:03:57.752Z,0
2016-10-15T03:04:57.711Z,0
2016-10-15T03:05:57.531Z,0
2016-10-15T03:06:57.550Z,0
2016-10-15T03:07:57.576Z,0
2016-10-15T03:08:57.588Z,0
2016-10-15T03:09:57.598Z,0
2016-10-15T03:10:57.611Z,0
2016-10-15T03:11:57.629Z,0
2016-10-15T03:12:57.685Z,0
2016-10-15T03:13:57.686Z,0
2016-10-15T03:14:57.787Z,0
2016-10-15T03:15:57.706Z,0
2016-10-15T03:16:57.725Z,0
2016-10-15T03:17:57.730Z,0
2016-10-15T03:18:57.747Z,0
2016-10-15T03:19:57.762Z,0
2016-10-15T03:20:57.790Z,0
2016-10-15T03:21:57.807Z,0
2016-10-15T03:22:57.825Z,0
2016-10-15T03:23:57.834Z,0
2016-10-15T03:24:57.853Z,0
2016-10-15T03:25:57.870Z,0
2016-10-15T03:26:57.885Z,0
2016-10-15T03:27:57.906Z,0
2016-10-15T03:28:57.926Z,0
2016-10-15T03:29:57.938Z,0
2016-10-15T03:30:57.956Z,0
2016-10-15T03:31:57.967Z,0
2016-10-15T03:32:57.985Z,0
2016-10-15T03:33:58.003Z,0
2016-10-15T03:34:58.016Z,0
2016-10-15T03:35:58.105Z,0
2016-10-15T03:36:58.113Z,0
2016-10-15T03:37:58.135Z,0
2016-10-15T03:38:58.143Z,0
2016-10-15T03:39:58.171Z,0
2016-10-15T03:40:58.190Z,0
2016-10-15T03:41:58.188Z,0
2016-10-15T03:42:58.197Z,0
2016-10-15T03:43:58.205Z,0
2016-10-15T03:44:58.215Z,0
2016-10-15T03:45:58.219Z,0
2016-10-15T03:46:58.236Z,0
2016-10-15T03:47:58.342Z,0
2016-10-15T03:48:58.257Z,0
2016-10-15T03:49:58.380Z,0
2016-10-15T03:50:58.331Z,0
2016-10-15T03:51:58.302Z,0
2016-10-15T03:52:58.418Z,0
2016-10-15T03:53:58.376Z,0
2016-10-15T03:54:58.357Z,0
2016-10-15T03:55:58.419Z,0
2016-10-15T03:56:58.392Z,0
2016-10-15T03:57:58.412Z,0
2016-10-15T03:58:58.419Z,0
2016-10-15T03:59:58.443Z,0
2016-10-15T04:00:58.453Z,0
2016-10-15T04:01:58.471Z,0
2016-10-15T04:02:58.490Z,0
2016-10-15T04:03:58.512Z,0
2016-10-15T04:04:58.521Z,0
2016-10-15T04:05:58.544Z,0
2016-10-15T04:06:58.557Z,0
2016-10-15T04:07:58.573Z,0
2016-10-15T04:08:58.588Z,0
2016-10-15T04:09:58.606Z,0
2016-10-15T04:10:58.623Z,0
2016-10-15T04:11:58.635Z,0
2016-10-15T04:12:58.663Z,0
2016-10-15T04:13:58.676Z,0
2016-10-15T04:14:58.961Z,0
2016-10-15T04:15:58.708Z,0
2016-10-15T04:16:58.724Z,0
2016-10-15T04:17:58.758Z,0
2016-10-15T04:18:58.760Z,0
2016-10-15T04:19:58.780Z,0
2016-10-15T04:20:58.814Z,0
2016-10-15T04:21:58.810Z,0
2016-10-15T04:22:58.831Z,0
2016-10-15T04:23:58.842Z,0
2016-10-15T04:24:58.863Z,0
2016-10-15T04:25:58.877Z,0
2016-10-15T04:26:58.895Z,0
2016-10-15T04:27:58.923Z,0
2016-10-15T04:28:58.943Z,0
2016-10-15T04:29:58.942Z,0
2016-10-15T04:30:58.966Z,0
2016-10-15T04:31:58.975Z,0
2016-10-15T04:32:58.997Z,0
2016-10-15T04:33:59.006Z,0
2016-10-15T04:34:59.029Z,0
2016-10-15T04:35:59.044Z,0
2016-10-15T04:36:59.062Z,0
2016-10-15T04:37:59.083Z,0
2016-10-15T04:38:59.098Z,0
2016-10-15T04:39:59.115Z,0
2016-10-15T04:40:59.129Z,0
2016-10-15T04:41:59.149Z,0
2016-10-15T04:42:59.168Z,0
2016-10-15T04:43:59.180Z,0
2016-10-15T04:44:59.190Z,0
2016-10-15T04:45:59.216Z,0
2016-10-15T04:46:59.232Z,0
2016-10-15T04:47:59.258Z,0
2016-10-15T04:48:59.268Z,0
2016-10-15T04:49:59.285Z,0
2016-10-15T04:50:59.307Z,0
2016-10-15T04:51:59.330Z,0
2016-10-15T04:52:59.330Z,0
2016-10-15T04:53:59.359Z,0
2016-10-15T04:54:59.371Z,0
2016-10-15T04:55:59.391Z,0
2016-10-15T04:56:59.403Z,0
2016-10-15T04:57:59.423Z,0
2016-10-15T04:58:59.435Z,0
2016-10-15T04:59:59.449Z,0
2016-10-15T05:01:00.027Z,0
2016-10-15T05:01:59.491Z,0
2016-10-15T05:02:59.512Z,0
2016-10-15T05:03:59.520Z,0
2016-10-15T05:04:59.535Z,0
2016-10-15T05:05:59.555Z,0
2016-10-15T05:06:59.565Z,0
2016-10-15T05:07:59.593Z,0
2016-10-15T05:08:59.603Z,0
2016-10-15T05:09:59.641Z,0
2016-10-15T05:10:59.640Z,0
2016-10-15T05:11:59.656Z,0
2016-10-15T05:12:59.673Z,0
2016-10-15T05:13:59.817Z,0
2016-10-15T05:14:59.815Z,0
2016-10-15T05:15:59.831Z,0
2016-10-15T05:16:59.822Z,0
2016-10-15T05:17:59.838Z,0
2016-10-15T05:18:59.857Z,0
2016-10-15T05:19:59.876Z,0
2016-10-15T05:20:59.898Z,0
2016-10-15T05:21:59.916Z,0
2016-10-15T05:22:59.977Z,0
2016-10-15T05:24:00.302Z,0
2016-10-15T05:24:59.990Z,0
2016-10-15T05:26:00.332Z,0
2016-10-15T05:27:00.001Z,0
2016-10-15T05:28:00.007Z,0
2016-10-15T05:29:00.151Z,0
2016-10-15T05:30:00.164Z,0
2016-10-15T05:30:59.975Z,0
2016-10-15T05:31:59.990Z,0
2016-10-15T05:33:00.007Z,0
2016-10-15T05:34:00.029Z,0
2016-10-15T05:35:00.218Z,0
2016-10-15T05:36:00.059Z,0
2016-10-15T05:37:00.082Z,0
2016-10-15T05:38:00.092Z,0
2016-10-15T05:39:00.122Z,0
2016-10-15T05:40:00.247Z,0
2016-10-15T05:41:00.249Z,0
2016-10-15T05:42:00.243Z,0
2016-10-15T05:43:00.263Z,0
2016-10-15T05:44:00.274Z,0
2016-10-15T05:45:00.443Z,0
2016-10-15T05:46:00.428Z,0
2016-10-15T05:47:00.446Z,0
2016-10-15T05:48:00.465Z,0
2016-10-15T05:49:00.466Z,0
2016-10-15T05:50:00.482Z,0
2016-10-15T05:51:00.613Z,0
2016-10-15T05:52:00.485Z,0
2016-10-15T05:53:00.529Z,0
2016-10-15T05:54:00.536Z,0
2016-10-15T05:55:00.546Z,0
2016-10-15T05:56:00.606Z,0
2016-10-15T05:57:00.557Z,0
2016-10-15T05:58:00.890Z,0
2016-10-15T05:59:00.576Z,0
2016-10-15T06:00:00.572Z,0
2016-10-15T06:01:00.689Z,0
2016-10-15T06:02:00.607Z,0
2016-10-15T06:03:00.603Z,0
2016-10-15T06:04:00.615Z,0
2016-10-15T06:05:00.617Z,0
2016-10-15T06:06:00.673Z,0
2016-10-15T06:07:00.589Z,0
2016-10-15T06:08:00.611Z,0
2016-10-15T06:09:00.624Z,0
2016-10-15T06:10:00.648Z,0
2016-10-15T06:11:00.699Z,0
2016-10-15T06:12:00.675Z,0
2016-10-15T06:13:00.687Z,0
2016-10-15T06:14:00.703Z,0
2016-10-15T06:15:00.725Z,0
2016-10-15T06:16:01.051Z,0
2016-10-15T06:17:00.751Z,0
2016-10-15T06:18:00.768Z,0
2016-10-15T06:19:00.783Z,0
2016-10-15T06:20:00.806Z,0
2016-10-15T06:21:00.827Z,0
2016-10-15T06:22:00.838Z,0
2016-10-15T06:23:00.859Z,0
2016-10-15T06:24:00.881Z,0
2016-10-15T06:25:00.886Z,0
2016-10-15T06:26:00.917Z,0
2016-10-15T06:27:00.919Z,0
2016-10-15T06:28:00.946Z,0
2016-10-15T06:29:00.950Z,5
2016-10-15T06:30:00.980Z,5
2016-10-15T06:31:00.997Z,5
2016-10-15T06:32:01.011Z,5
2016-10-15T06:33:01.022Z,5
2016-10-15T06:34:01.039Z,5
2016-10-15T06:35:01.058Z,5
2016-10-15T06:36:01.075Z,5
2016-10-15T06:37:01.092Z,5
2016-10-15T06:38:01.129Z,5
2016-10-15T06:39:01.122Z,5
2016-10-15T06:40:01.152Z,5
2016-10-15T06:41:01.160Z,5
2016-10-15T06:42:01.179Z,5
2016-10-15T06:43:01.283Z,5
2016-10-15T06:44:01.212Z,5
2016-10-15T06:45:01.232Z,5
2016-10-15T06:46:01.239Z,5
2016-10-15T06:47:01.264Z,5
2016-10-15T06:48:01.282Z,5
2016-10-15T06:49:01.312Z,5
2016-10-15T06:50:01.319Z,5
2016-10-15T06:51:01.338Z,5
2016-10-15T06:52:01.346Z,5
2016-10-15T06:53:01.359Z,5
2016-10-15T06:54:01.381Z,5
2016-10-15T06:55:01.391Z,5
2016-10-15T06:56:01.415Z,5
2016-10-15T06:57:01.434Z,5
2016-10-15T06:58:01.450Z,5
2016-10-15T06:59:01.469Z,5
2016-10-15T07:00:01.481Z,5
2016-10-15T07:01:01.497Z,5
2016-10-15T07:02:01.534Z,5
2016-10-15T07:03:01.536Z,5
2016-10-15T07:04:01.683Z,5
2016-10-15T07:05:01.614Z,5
2016-10-15T07:06:01.623Z,5
2016-10-15T07:07:01.630Z,5
2016-10-15T07:08:01.640Z,5
2016-10-15T07:09:01.640Z,5
2016-10-15T07:10:01.767Z,5
2016-10-15T07:11:01.786Z,5
2016-10-15T07:12:01.795Z,5
2016-10-15T07:13:01.804Z,5
2016-10-15T07:14:01.813Z,5
2016-10-15T07:15:01.841Z,5
2016-10-15T07:16:01.849Z,5
2016-10-15T07:17:01.870Z,5
2016-10-15T07:18:01.878Z,5
2016-10-15T07:19:01.877Z,5
2016-10-15T07:20:01.921Z,5
2016-10-15T07:21:01.923Z,5
2016-10-15T07:22:01.934Z,5
2016-10-15T07:23:01.941Z,5
2016-10-15T07:24:01.941Z,5
2016-10-15T07:25:01.948Z,5
2016-10-15T07:26:01.957Z,5
2016-10-15T07:27:01.967Z,5
2016-10-15T07:28:01.980Z,5
2016-10-15T07:29:01.983Z,5
2016-10-15T07:30:01.999Z,5
2016-10-15T07:31:02.013Z,5
2016-10-15T07:32:02.028Z,5
2016-10-15T07:33:02.050Z,5
2016-10-15T07:34:02.068Z,5
2016-10-15T07:35:02.127Z,5
2016-10-15T07:36:02.100Z,5
2016-10-15T07:37:02.117Z,5
2016-10-15T07:38:02.136Z,5
2016-10-15T07:39:02.152Z,5
2016-10-15T07:40:02.176Z,5
2016-10-15T07:41:02.187Z,5
2016-10-15T07:42:02.207Z,5
2016-10-15T07:43:02.224Z,5
2016-10-15T07:44:02.416Z,5
2016-10-15T07:45:02.429Z,5
2016-10-15T07:46:02.508Z,10
2016-10-15T07:47:02.439Z,10
2016-10-15T07:48:02.485Z,10
2016-10-15T07:49:02.461Z,10
2016-10-15T07:50:02.826Z,10
2016-10-15T07:51:02.599Z,10
2016-10-15T07:52:02.479Z,10
2016-10-15T07:53:02.508Z,10
2016-10-15T07:54:02.785Z,10
2016-10-15T07:55:02.468Z,10
2016-10-15T07:56:02.555Z,10
2016-10-15T07:57:02.474Z,10
2016-10-15T07:58:02.485Z,10
2016-10-15T07:59:02.615Z,10
2016-10-15T08:00:02.633Z,10
2016-10-15T08:01:02.613Z,10
2016-10-15T08:02:02.558Z,10
2016-10-15T08:03:02.667Z,10
2016-10-15T08:04:02.708Z,10
2016-10-15T08:05:02.603Z,10
2016-10-15T08:06:02.625Z,10
2016-10-15T08:07:02.645Z,10
2016-10-15T08:08:02.674Z,10
2016-10-15T08:09:02.682Z,10
2016-10-15T08:10:02.740Z,10
2016-10-15T08:11:03.119Z,10
2016-10-15T08:12:02.747Z,10
2016-10-15T08:13:02.750Z,10
2016-10-15T08:14:02.772Z,10
2016-10-15T08:15:02.779Z,10
2016-10-15T08:16:02.811Z,10
2016-10-15T08:17:03.143Z,10
2016-10-15T08:18:02.859Z,10
2016-10-15T08:19:02.851Z,10
2016-10-15T08:20:02.876Z,10
2016-10-15T08:21:02.892Z,10
2016-10-15T08:22:03.084Z,10
2016-10-15T08:23:02.922Z,10
2016-10-15T08:24:03.063Z,10
2016-10-15T08:25:03.077Z,10
2016-10-15T08:26:03.281Z,10
2016-10-15T08:27:03.080Z,10
2016-10-15T08:28:03.088Z,10
2016-10-15T08:29:03.231Z,10
2016-10-15T08:30:03.257Z,15
2016-10-15T08:31:03.252Z,15
2016-10-15T08:32:03.271Z,15
2016-10-15T08:33:03.183Z,15
2016-10-15T08:34:03.279Z,15
2016-10-15T08:35:03.233Z,15
2016-10-15T08:36:03.233Z,15
2016-10-15T08:37:03.225Z,15
2016-10-15T08:38:03.284Z,15
2016-10-15T08:39:03.283Z,15
2016-10-15T08:40:03.301Z,15
2016-10-15T08:41:03.296Z,15
2016-10-15T08:42:03.301Z,15
2016-10-15T08:43:03.297Z,15
2016-10-15T08:44:03.313Z,15
2016-10-15T08:45:03.318Z,15
2016-10-15T08:46:03.336Z,15
2016-10-15T08:47:03.347Z,15
2016-10-15T08:48:03.364Z,15
2016-10-15T08:49:03.381Z,15
2016-10-15T08:50:03.414Z,15
2016-10-15T08:51:03.417Z,15
2016-10-15T08:52:03.435Z,15
2016-10-15T08:53:03.446Z,15
2016-10-15T08:54:03.474Z,15
2016-10-15T08:55:03.483Z,15
2016-10-15T08:56:03.500Z,15
2016-10-15T08:57:03.584Z,15
2016-10-15T08:58:03.541Z,20
2016-10-15T08:59:03.559Z,20
2016-10-15T09:00:03.581Z,20
2016-10-15T09:01:03.585Z,20
2016-10-15T09:02:03.624Z,20
2016-10-15T09:03:03.636Z,20
2016-10-15T09:04:03.640Z,20
2016-10-15T09:05:03.661Z,20
2016-10-15T09:06:03.691Z,20
2016-10-15T09:07:03.706Z,20
2016-10-15T09:08:03.727Z,15
2016-10-15T09:09:03.734Z,15
2016-10-15T09:10:03.755Z,15
2016-10-15T09:11:03.777Z,15
2016-10-15T09:12:03.785Z,15
2016-10-15T09:13:03.814Z,15
2016-10-15T09:14:03.819Z,15
2016-10-15T09:15:03.848Z,20
2016-10-15T09:16:03.857Z,20
2016-10-15T09:17:03.887Z,20
2016-10-15T09:18:03.898Z,20
2016-10-15T09:19:03.915Z,25
2016-10-15T09:20:03.932Z,30
2016-10-15T09:21:03.948Z,30
2016-10-15T09:22:04.071Z,25
2016-10-15T09:23:04.118Z,25
2016-10-15T09:24:04.112Z,25
2016-10-15T09:25:04.135Z,25
2016-10-15T09:26:04.135Z,20
2016-10-15T09:27:04.146Z,20
2016-10-15T09:28:04.152Z,20
2016-10-15T09:29:04.164Z,25
2016-10-15T09:30:04.283Z,30
2016-10-15T09:31:04.216Z,30
2016-10-15T09:32:04.226Z,35
2016-10-15T09:33:04.267Z,35
2016-10-15T09:34:04.278Z,30
2016-10-15T09:35:04.281Z,30
2016-10-15T09:36:04.233Z,30
2016-10-15T09:37:04.256Z,30
2016-10-15T09:38:04.276Z,30
2016-10-15T09:39:04.373Z,30
2016-10-15T09:40:04.293Z,30
2016-10-15T09:41:04.327Z,25
2016-10-15T09:42:04.341Z,25
2016-10-15T09:43:04.368Z,25
2016-10-15T09:44:04.372Z,20
2016-10-15T09:45:04.392Z,20
2016-10-15T09:46:04.415Z,25
2016-10-15T09:47:04.430Z,25
2016-10-15T09:48:04.457Z,30
2016-10-15T09:49:04.459Z,25
2016-10-15T09:50:04.499Z,25
2016-10-15T09:51:04.512Z,25
2016-10-15T09:52:04.601Z,25
2016-10-15T09:53:04.624Z,25
2016-10-15T09:54:04.643Z,25
2016-10-15T09:55:04.712Z,25
2016-10-15T09:56:04.720Z,30
2016-10-15T09:57:04.729Z,30
2016-10-15T09:58:04.739Z,30
2016-10-15T09:59:04.777Z,30
2016-10-15T10:00:04.786Z,30
2016-10-15T10:01:04.795Z,30
2016-10-15T10:02:04.803Z,30
2016-10-15T10:03:04.836Z,30
2016-10-15T10:04:04.816Z,30
2016-10-15T10:05:04.819Z,30
2016-10-15T10:06:04.873Z,30
2016-10-15T10:07:04.882Z,30
2016-10-15T10:08:04.909Z,25
2016-10-15T10:09:04.918Z,30
2016-10-15T10:10:04.924Z,30
2016-10-15T10:11:04.882Z,30
2016-10-15T10:12:04.916Z,30
2016-10-15T10:13:04.910Z,30
2016-10-15T10:14:04.953Z,30
2016-10-15T10:15:04.958Z,30
2016-10-15T10:16:04.989Z,30
2016-10-15T10:17:04.995Z,30
2016-10-15T10:18:05.014Z,30
2016-10-15T10:19:05.024Z,30
2016-10-15T10:20:05.058Z,30
2016-10-15T10:21:05.107Z,30
2016-10-15T10:22:05.107Z,30
2016-10-15T10:23:05.103Z,30
2016-10-15T10:24:05.132Z,30
2016-10-15T10:25:05.141Z,30
2016-10-15T10:26:05.168Z,25
2016-10-15T10:27:05.179Z,25
2016-10-15T10:28:05.225Z,30
2016-10-15T10:29:05.216Z,30
2016-10-15T10:30:05.253Z,30
2016-10-15T10:31:05.256Z,30
2016-10-15T10:32:05.278Z,30
2016-10-15T10:33:05.293Z,30
2016-10-15T10:34:05.315Z,30
2016-10-15T10:35:05.332Z,30
2016-10-15T10:36:05.359Z,30
2016-10-15T10:37:05.368Z,30
2016-10-15T10:38:05.406Z,30
2016-10-15T10:39:05.400Z,30
2016-10-15T10:40:05.425Z,30
2016-10-15T10:41:05.452Z,25
2016-10-15T10:42:05.481Z,25
2016-10-15T10:43:05.480Z,25
2016-10-15T10:44:05.846Z,20
2016-10-15T10:45:05.524Z,20
2016-10-15T10:46:05.561Z,20
2016-10-15T10:47:05.568Z,20
2016-10-15T10:48:05.596Z,20
2016-10-15T10:49:05.619Z,25
2016-10-15T10:50:05.637Z,25
2016-10-15T10:51:05.638Z,25
2016-10-15T10:52:05.687Z,30
2016-10-15T10:53:05.995Z,25
2016-10-15T10:54:05.702Z,25
2016-10-15T10:55:05.715Z,25
2016-10-15T10:56:05.744Z,25
2016-10-15T10:57:05.755Z,25
2016-10-15T10:58:05.796Z,25
2016-10-15T10:59:05.794Z,25
2016-10-15T11:00:05.819Z,25
2016-10-15T11:01:05.861Z,25
2016-10-15T11:02:06.177Z,25
2016-10-15T11:03:05.872Z,25
2016-10-15T11:04:05.895Z,25
2016-10-15T11:05:05.937Z,30
2016-10-15T11:06:05.929Z,30
2016-10-15T11:07:05.948Z,30
2016-10-15T11:08:05.975Z,30
2016-10-15T11:09:05.996Z,30
2016-10-15T11:10:06.009Z,30
2016-10-15T11:11:06.037Z,30
2016-10-15T11:12:06.369Z,30
2016-10-15T11:13:06.074Z,30
2016-10-15T11:14:06.087Z,30
2016-10-15T11:15:06.114Z,30
2016-10-15T11:16:06.127Z,30
2016-10-15T11:17:06.148Z,30
2016-10-15T11:18:06.180Z,30
2016-10-15T11:19:06.195Z,30
2016-10-15T11:20:06.208Z,30
2016-10-15T11:21:06.233Z,30
2016-10-15T11:22:06.248Z,30
2016-10-15T11:23:06.267Z,30
2016-10-15T11:24:06.284Z,30
2016-10-15T11:25:06.767Z,30
2016-10-15T11:26:06.330Z,30
2016-10-15T11:27:06.348Z,35
2016-10-15T11:28:06.368Z,35
2016-10-15T11:29:06.512Z,35
2016-10-15T11:30:06.512Z,35
2016-10-15T11:31:06.511Z,35
2016-10-15T11:32:06.528Z,35
2016-10-15T11:33:06.702Z,35
2016-10-15T11:34:06.710Z,35
2016-10-15T11:35:06.720Z,40
2016-10-15T11:36:06.730Z,40
2016-10-15T11:37:06.743Z,40
2016-10-15T11:38:06.753Z,40
2016-10-15T11:39:06.824Z,40
2016-10-15T11:40:06.812Z,40
2016-10-15T11:41:06.822Z,40
2016-10-15T11:42:06.820Z,40
2016-10-15T11:43:06.833Z,35
2016-10-15T11:44:06.835Z,30
2016-10-15T11:45:06.864Z,30
2016-10-15T11:46:06.853Z,30
2016-10-15T11:47:06.851Z,30
2016-10-15T11:48:06.861Z,25
2016-10-15T11:49:06.867Z,30
2016-10-15T11:50:06.878Z,30
2016-10-15T11:51:06.936Z,30
2016-10-15T11:52:06.858Z,30
2016-10-15T11:53:06.866Z,25
2016-10-15T11:54:06.982Z,25
2016-10-15T11:55:06.916Z,25
2016-10-15T11:56:06.936Z,20
2016-10-15T11:57:06.950Z,20
2016-10-15T11:58:06.994Z,20
2016-10-15T11:59:06.988Z,20
2016-10-15T12:00:07.005Z,20
2016-10-15T12:01:07.352Z,20
2016-10-15T12:02:07.062Z,15
2016-10-15T12:03:07.076Z,15
2016-10-15T12:04:07.104Z,10
2016-10-15T12:05:07.124Z,10
2016-10-15T12:06:07.137Z,10
2016-10-15T12:07:07.152Z,10
2016-10-15T12:08:07.182Z,10
2016-10-15T12:09:07.201Z,10
2016-10-15T12:10:07.232Z,10
2016-10-15T12:11:07.237Z,10
2016-10-15T12:12:07.259Z,10
2016-10-15T12:13:07.283Z,10
2016-10-15T12:14:07.295Z,10
2016-10-15T12:15:07.336Z,10
2016-10-15T12:16:07.361Z,10
2016-10-15T12:17:07.351Z,10
2016-10-15T12:18:07.397Z,10
2016-10-15T12:19:07.404Z,10
2016-10-15T12:20:07.429Z,10
2016-10-15T12:21:07.443Z,10
2016-10-15T12:22:07.459Z,10
2016-10-15T12:23:07.481Z,10
2016-10-15T12:24:07.508Z,10
2016-10-15T12:25:07.527Z,10
2016-10-15T12:26:07.549Z,10
2016-10-15T12:27:07.571Z,10
2016-10-15T12:28:07.593Z,10
2016-10-15T12:29:07.608Z,10
2016-10-15T12:30:07.637Z,10
2016-10-15T12:31:07.652Z,10
2016-10-15T12:32:07.672Z,10
2016-10-15T12:33:07.687Z,10
2016-10-15T12:34:07.723Z,10
2016-10-15T12:35:07.731Z,10
2016-10-15T12:36:07.754Z,10
2016-10-15T12:37:07.768Z,10
2016-10-15T12:38:07.799Z,10
2016-10-15T12:39:07.834Z,10
2016-10-15T12:40:07.849Z,10
2016-10-15T12:41:07.858Z,10
2016-10-15T12:42:07.881Z,10
2016-10-15T12:43:07.895Z,10
2016-10-15T12:44:07.918Z,10
2016-10-15T12:45:07.939Z,10
2016-10-15T12:46:07.970Z,10
2016-10-15T12:47:07.979Z,10
2016-10-15T12:48:08.013Z,10
2016-10-15T12:49:08.020Z,10
2016-10-15T12:50:08.044Z,10
2016-10-15T12:51:08.066Z,10
2016-10-15T12:52:08.079Z,10
2016-10-15T12:53:08.112Z,10
2016-10-15T12:54:08.125Z,10
2016-10-15T12:55:08.155Z,10
2016-10-15T12:56:08.219Z,10
2016-10-15T12:57:08.196Z,15
2016-10-15T12:58:08.226Z,10
2016-10-15T12:59:08.238Z,10
2016-10-15T13:00:08.261Z,10
2016-10-15T13:01:08.284Z,10
2016-10-15T13:02:08.312Z,10
2016-10-15T13:03:08.321Z,10
2016-10-15T13:04:08.390Z,10
2016-10-15T13:05:08.376Z,10
2016-10-15T13:06:08.390Z,10
2016-10-15T13:07:08.400Z,10
2016-10-15T13:08:08.548Z,10
2016-10-15T13:09:08.562Z,10
2016-10-15T13:10:08.733Z,10
2016-10-15T13:11:08.584Z,15
2016-10-15T13:12:08.738Z,15
2016-10-15T13:13:08.748Z,10
2016-10-15T13:14:08.759Z,10
2016-10-15T13:15:08.779Z,10
2016-10-15T13:16:08.774Z,10
2016-10-15T13:17:08.776Z,10
2016-10-15T13:18:08.785Z,10
2016-10-15T13:19:08.817Z,10
2016-10-15T13:20:08.804Z,15
2016-10-15T13:21:08.841Z,15
2016-10-15T13:22:08.852Z,15
2016-10-15T13:23:08.864Z,15
2016-10-15T13:24:08.878Z,15
2016-10-15T13:25:08.881Z,20
2016-10-15T13:26:08.878Z,15
2016-10-15T13:27:08.928Z,15
2016-10-15T13:28:08.939Z,20
2016-10-15T13:29:08.948Z,20
2016-10-15T13:30:09.008Z,20
2016-10-15T13:31:08.983Z,25
2016-10-15T13:32:09.116Z,25
2016-10-15T13:33:08.965Z,20
2016-10-15T13:34:08.990Z,15
2016-10-15T13:35:09.004Z,20
2016-10-15T13:36:09.058Z,20
2016-10-15T13:37:09.054Z,20
2016-10-15T13:38:09.073Z,15
2016-10-15T13:39:09.096Z,15
2016-10-15T13:40:09.292Z,10
2016-10-15T13:41:09.133Z,10
2016-10-15T13:42:09.186Z,15
2016-10-15T13:43:09.187Z,15
2016-10-15T13:44:09.214Z,15
2016-10-15T13:45:09.229Z,15
2016-10-15T13:46:09.582Z,15
2016-10-15T13:47:09.264Z,15
2016-10-15T13:48:09.292Z,15
2016-10-15T13:49:09.316Z,15
2016-10-15T13:50:09.343Z,15
2016-10-15T13:51:09.362Z,15
2016-10-15T13:52:09.398Z,15
2016-10-15T13:53:09.407Z,20
2016-10-15T13:54:09.436Z,20
2016-10-15T13:55:09.437Z,20
2016-10-15T13:56:09.477Z,20
2016-10-15T13:57:09.486Z,15
2016-10-15T13:58:09.536Z,20
2016-10-15T13:59:09.525Z,20
2016-10-15T14:00:09.559Z,20
2016-10-15T14:01:09.575Z,15
2016-10-15T14:02:09.614Z,15
2016-10-15T14:03:09.939Z,10
2016-10-15T14:04:09.654Z,10
2016-10-15T14:05:09.663Z,15
2016-10-15T14:06:09.689Z,15
2016-10-15T14:07:09.707Z,15
2016-10-15T14:08:09.732Z,15
2016-10-15T14:09:09.750Z,15
2016-10-15T14:10:09.792Z,15
2016-10-15T14:11:09.790Z,15
2016-10-15T14:12:09.835Z,15
2016-10-15T14:13:09.839Z,15
2016-10-15T14:14:09.866Z,15
2016-10-15T14:15:09.883Z,15
2016-10-15T14:16:09.905Z,15
2016-10-15T14:17:09.927Z,20
2016-10-15T14:18:09.965Z,20
2016-10-15T14:19:09.973Z,20
2016-10-15T14:20:10.002Z,15
2016-10-15T14:21:10.021Z,15
2016-10-15T14:22:10.034Z,15
2016-10-15T14:23:10.061Z,15
2016-10-15T14:24:10.091Z,20
2016-10-15T14:25:10.128Z,15
2016-10-15T14:26:10.137Z,15
2016-10-15T14:27:10.164Z,15
2016-10-15T14:28:10.173Z,10
2016-10-15T14:29:10.194Z,10
2016-10-15T14:30:10.222Z,10
2016-10-15T14:31:10.236Z,5
2016-10-15T14:32:10.263Z,10
2016-10-15T14:33:10.286Z,15